sensor_id;sensor_type;location;lat;lon;timestamp;temperature;humidity
12746;DHT22;6437;53.686;10.030;2023-06-14T00:00:51;16.70;99.90
12746;DHT22;6437;53.686;10.030;2023-06-14T00:02:54;16.10;99.90
12746;DHT22;6437;53.686;10.030;2023-06-14T00:04:56;16.70;99.90
12746;DHT22;6437;53.686;10.030;2023-06-14T00:07:00;16.70;99.90
12746;DHT22;6437;53.686;10.030;2023-06-14T00:09:02;16.70;99.90
12746;DHT22;6437;53.686;10.030;2023-06-14T00:11:03;16.70;99.90
12746;DHT22;6437;53.686;10.030;2023-06-14T00:13:05;16.60;99.90
12746;DHT22;6437;53.686;10.030;2023-06-14T00:15:07;16.60;99.90
12746;DHT22;6437;53.686;10.030;2023-06-14T00:17:11;16.60;99.90
12746;DHT22;6437;53.686;10.030;2023-06-14T00:19:13;17.50;99.90
12746;DHT22;6437;53.686;10.030;2023-06-14T00:21:16;16.50;99.90
12746;DHT22;6437;53.686;10.030;2023-06-14T00:23:18;16.50;99.90
12746;DHT22;6437;53.686;10.030;2023-06-14T00:25:20;16.50;99.90
12746;DHT22;6437;53.686;10.030;2023-06-14T00:27:22;16.50;99.90
12746;DHT22;6437;53.686;10.030;2023-06-14T00:29:23;17.80;99.90
12746;DHT22;6437;53.686;10.030;2023-06-14T00:31:25;16.40;99.90
12746;DHT22;6437;53.686;10.030;2023-06-14T00:33:28;16.40;99.90
12746;DHT22;6437;53.686;10.030;2023-06-14T00:35:30;16.40;99.90
12746;DHT22;6437;53.686;10.030;2023-06-14T00:37:32;16.40;99.90
12746;DHT22;6437;53.686;10.030;2023-06-14T00:39:34;16.40;99.90
12746;DHT22;6437;53.686;10.030;2023-06-14T00:41:36;16.40;99.90
12746;DHT22;6437;53.686;10.030;2023-06-14T00:43:37;16.40;99.90
12746;DHT22;6437;53.686;10.030;2023-06-14T00:45:39;16.40;99.90
12746;DHT22;6437;53.686;10.030;2023-06-14T00:47:41;16.40;99.90
12746;DHT22;6437;53.686;10.030;2023-06-14T00:49:47;16.40;99.90
12746;DHT22;6437;53.686;10.030;2023-06-14T00:51:49;16.30;99.90
12746;DHT22;6437;53.686;10.030;2023-06-14T00:53:51;16.30;99.90
12746;DHT22;6437;53.686;10.030;2023-06-14T00:55:52;16.30;99.90
12746;DHT22;6437;53.686;10.030;2023-06-14T00:57:54;16.30;99.90
12746;DHT22;6437;53.686;10.030;2023-06-14T00:59:56;16.20;99.90
12746;DHT22;6437;53.686;10.030;2023-06-14T01:01:58;16.30;99.90
12746;DHT22;6437;53.686;10.030;2023-06-14T01:04:00;16.20;99.90
12746;DHT22;6437;53.686;10.030;2023-06-14T01:06:11;16.70;99.90
12746;DHT22;6437;53.686;10.030;2023-06-14T01:08:23;16.10;99.90
12746;DHT22;6437;53.686;10.030;2023-06-14T01:10:36;16.10;99.90
12746;DHT22;6437;53.686;10.030;2023-06-14T01:12:47;16.10;99.90
12746;DHT22;6437;53.686;10.030;2023-06-14T01:14:54;16.10;99.90
12746;DHT22;6437;53.686;10.030;2023-06-14T01:16:57;16.10;99.90
12746;DHT22;6437;53.686;10.030;2023-06-14T01:19:01;16.10;99.90
12746;DHT22;6437;53.686;10.030;2023-06-14T01:21:03;15.30;99.90
12746;DHT22;6437;53.686;10.030;2023-06-14T01:23:07;16.20;99.90
12746;DHT22;6437;53.686;10.030;2023-06-14T01:25:09;16.10;99.90
12746;DHT22;6437;53.686;10.030;2023-06-14T01:27:13;16.20;99.90
12746;DHT22;6437;53.686;10.030;2023-06-14T01:29:16;16.20;99.90
12746;DHT22;6437;53.686;10.030;2023-06-14T01:31:20;16.20;99.90
12746;DHT22;6437;53.686;10.030;2023-06-14T01:33:26;16.20;99.90
12746;DHT22;6437;53.686;10.030;2023-06-14T01:35:27;16.20;99.90
12746;DHT22;6437;53.686;10.030;2023-06-14T01:37:29;16.10;99.90
12746;DHT22;6437;53.686;10.030;2023-06-14T01:39:33;16.10;99.90
12746;DHT22;6437;53.686;10.030;2023-06-14T01:41:35;16.10;99.90
12746;DHT22;6437;53.686;10.030;2023-06-14T01:43:39;16.10;99.90
12746;DHT22;6437;53.686;10.030;2023-06-14T01:45:41;16.10;99.90
12746;DHT22;6437;53.686;10.030;2023-06-14T01:47:44;16.00;99.90
12746;DHT22;6437;53.686;10.030;2023-06-14T01:49:46;16.00;99.90
12746;DHT22;6437;53.686;10.030;2023-06-14T01:51:48;16.00;99.90
12746;DHT22;6437;53.686;10.030;2023-06-14T01:53:50;15.70;99.90
12746;DHT22;6437;53.686;10.030;2023-06-14T01:55:53;15.90;99.90
12746;DHT22;6437;53.686;10.030;2023-06-14T01:57:55;15.90;99.90
12746;DHT22;6437;53.686;10.030;2023-06-14T01:59:57;16.00;99.90
12746;DHT22;6437;53.686;10.030;2023-06-14T02:01:58;15.90;99.90
12746;DHT22;6437;53.686;10.030;2023-06-14T02:04:00;16.00;99.90
12746;DHT22;6437;53.686;10.030;2023-06-14T02:06:02;16.80;99.90
12746;DHT22;6437;53.686;10.030;2023-06-14T02:08:04;15.90;99.90
12746;DHT22;6437;53.686;10.030;2023-06-14T02:10:06;15.80;99.90
12746;DHT22;6437;53.686;10.030;2023-06-14T02:12:10;15.80;99.90
12746;DHT22;6437;53.686;10.030;2023-06-14T02:14:12;15.80;99.90
12746;DHT22;6437;53.686;10.030;2023-06-14T02:16:15;15.80;99.90
12746;DHT22;6437;53.686;10.030;2023-06-14T02:18:17;15.80;99.90
12746;DHT22;6437;53.686;10.030;2023-06-14T02:20:19;15.80;99.90
12746;DHT22;6437;53.686;10.030;2023-06-14T02:22:21;15.70;99.90
12746;DHT22;6437;53.686;10.030;2023-06-14T02:24:23;15.70;99.90
12746;DHT22;6437;53.686;10.030;2023-06-14T02:26:25;15.70;99.90
12746;DHT22;6437;53.686;10.030;2023-06-14T02:28:30;15.80;99.90
12746;DHT22;6437;53.686;10.030;2023-06-14T02:30:32;15.80;99.90
12746;DHT22;6437;53.686;10.030;2023-06-14T02:32:34;15.70;99.90
12746;DHT22;6437;53.686;10.030;2023-06-14T02:34:36;15.70;99.90
12746;DHT22;6437;53.686;10.030;2023-06-14T02:36:37;15.70;99.90
12746;DHT22;6437;53.686;10.030;2023-06-14T02:38:42;15.70;99.90
12746;DHT22;6437;53.686;10.030;2023-06-14T02:40:43;15.60;99.90
12746;DHT22;6437;53.686;10.030;2023-06-14T02:42:45;15.60;99.90
12746;DHT22;6437;53.686;10.030;2023-06-14T02:44:48;15.60;99.90
12746;DHT22;6437;53.686;10.030;2023-06-14T02:46:51;15.70;99.90
12746;DHT22;6437;53.686;10.030;2023-06-14T02:48:53;15.60;99.90
12746;DHT22;6437;53.686;10.030;2023-06-14T02:50:55;15.60;99.90
12746;DHT22;6437;53.686;10.030;2023-06-14T02:52:57;15.60;99.90
12746;DHT22;6437;53.686;10.030;2023-06-14T02:54:59;15.50;99.90
12746;DHT22;6437;53.686;10.030;2023-06-14T02:57:01;15.60;99.90
12746;DHT22;6437;53.686;10.030;2023-06-14T02:59:03;15.50;99.90
12746;DHT22;6437;53.686;10.030;2023-06-14T03:01:06;16.20;99.90
12746;DHT22;6437;53.686;10.030;2023-06-14T03:03:08;15.40;99.90
12746;DHT22;6437;53.686;10.030;2023-06-14T03:05:14;15.40;99.90
12746;DHT22;6437;53.686;10.030;2023-06-14T03:07:16;15.40;99.90
12746;DHT22;6437;53.686;10.030;2023-06-14T03:09:20;15.40;99.90
12746;DHT22;6437;53.686;10.030;2023-06-14T03:11:21;15.40;99.90
12746;DHT22;6437;53.686;10.030;2023-06-14T03:13:23;15.40;99.90
12746;DHT22;6437;53.686;10.030;2023-06-14T03:15:25;15.40;99.90
12746;DHT22;6437;53.686;10.030;2023-06-14T03:17:29;15.40;99.90
12746;DHT22;6437;53.686;10.030;2023-06-14T03:19:33;15.40;99.90
12746;DHT22;6437;53.686;10.030;2023-06-14T03:21:35;15.40;99.90
12746;DHT22;6437;53.686;10.030;2023-06-14T03:23:37;15.40;99.90
12746;DHT22;6437;53.686;10.030;2023-06-14T03:25:38;15.40;99.90
12746;DHT22;6437;53.686;10.030;2023-06-14T03:27:42;15.40;99.90
12746;DHT22;6437;53.686;10.030;2023-06-14T03:29:44;15.40;99.90
12746;DHT22;6437;53.686;10.030;2023-06-14T03:31:58;15.40;99.90
12746;DHT22;6437;53.686;10.030;2023-06-14T03:34:01;15.40;99.90
12746;DHT22;6437;53.686;10.030;2023-06-14T03:36:04;15.40;99.90
12746;DHT22;6437;53.686;10.030;2023-06-14T03:38:06;15.30;99.90
12746;DHT22;6437;53.686;10.030;2023-06-14T03:40:09;15.30;99.90
12746;DHT22;6437;53.686;10.030;2023-06-14T03:42:10;15.40;99.90
12746;DHT22;6437;53.686;10.030;2023-06-14T03:44:15;15.40;99.90
12746;DHT22;6437;53.686;10.030;2023-06-14T03:46:17;15.40;99.90
12746;DHT22;6437;53.686;10.030;2023-06-14T03:48:19;15.40;99.90
12746;DHT22;6437;53.686;10.030;2023-06-14T03:50:22;15.40;99.90
12746;DHT22;6437;53.686;10.030;2023-06-14T03:52:24;15.40;99.90
12746;DHT22;6437;53.686;10.030;2023-06-14T03:54:26;15.40;99.90
12746;DHT22;6437;53.686;10.030;2023-06-14T03:56:29;15.40;99.90
12746;DHT22;6437;53.686;10.030;2023-06-14T03:58:30;15.40;99.90
12746;DHT22;6437;53.686;10.030;2023-06-14T04:00:32;15.50;99.90
12746;DHT22;6437;53.686;10.030;2023-06-14T04:02:34;15.50;99.90
12746;DHT22;6437;53.686;10.030;2023-06-14T04:04:36;15.50;99.90
12746;DHT22;6437;53.686;10.030;2023-06-14T04:06:40;15.50;99.90
12746;DHT22;6437;53.686;10.030;2023-06-14T04:08:43;15.60;99.90
12746;DHT22;6437;53.686;10.030;2023-06-14T04:10:45;15.50;99.90
12746;DHT22;6437;53.686;10.030;2023-06-14T04:12:47;15.50;99.90
12746;DHT22;6437;53.686;10.030;2023-06-14T04:14:49;15.50;99.90
12746;DHT22;6437;53.686;10.030;2023-06-14T04:16:51;15.60;99.90
12746;DHT22;6437;53.686;10.030;2023-06-14T04:18:54;15.60;99.90
12746;DHT22;6437;53.686;10.030;2023-06-14T04:20:56;15.60;99.90
12746;DHT22;6437;53.686;10.030;2023-06-14T04:23:11;15.70;99.90
12746;DHT22;6437;53.686;10.030;2023-06-14T04:25:13;15.70;99.90
12746;DHT22;6437;53.686;10.030;2023-06-14T04:27:15;15.70;99.90
12746;DHT22;6437;53.686;10.030;2023-06-14T04:29:22;15.70;99.90
12746;DHT22;6437;53.686;10.030;2023-06-14T04:31:24;15.80;99.90
12746;DHT22;6437;53.686;10.030;2023-06-14T04:33:26;15.90;99.90
12746;DHT22;6437;53.686;10.030;2023-06-14T04:35:28;15.90;99.90
12746;DHT22;6437;53.686;10.030;2023-06-14T04:37:30;15.90;99.90
12746;DHT22;6437;53.686;10.030;2023-06-14T04:39:33;16.00;99.90
12746;DHT22;6437;53.686;10.030;2023-06-14T04:41:35;16.00;99.90
12746;DHT22;6437;53.686;10.030;2023-06-14T04:43:38;16.00;99.90
12746;DHT22;6437;53.686;10.030;2023-06-14T04:45:40;16.10;99.90
12746;DHT22;6437;53.686;10.030;2023-06-14T04:47:45;16.10;99.90
12746;DHT22;6437;53.686;10.030;2023-06-14T04:49:47;16.10;99.90
12746;DHT22;6437;53.686;10.030;2023-06-14T04:51:48;16.30;99.90
12746;DHT22;6437;53.686;10.030;2023-06-14T04:53:59;16.20;99.90
12746;DHT22;6437;53.686;10.030;2023-06-14T04:56:03;16.20;99.90
12746;DHT22;6437;53.686;10.030;2023-06-14T04:58:05;16.20;99.90
12746;DHT22;6437;53.686;10.030;2023-06-14T05:00:08;16.30;99.90
12746;DHT22;6437;53.686;10.030;2023-06-14T05:02:12;16.30;99.90
12746;DHT22;6437;53.686;10.030;2023-06-14T05:04:14;16.30;99.90
12746;DHT22;6437;53.686;10.030;2023-06-14T05:06:15;16.30;99.90
12746;DHT22;6437;53.686;10.030;2023-06-14T05:08:17;16.40;99.90
12746;DHT22;6437;53.686;10.030;2023-06-14T05:10:19;16.30;99.90
12746;DHT22;6437;53.686;10.030;2023-06-14T05:12:22;16.40;99.90
12746;DHT22;6437;53.686;10.030;2023-06-14T05:14:24;16.40;99.90
12746;DHT22;6437;53.686;10.030;2023-06-14T05:16:26;16.40;99.90
12746;DHT22;6437;53.686;10.030;2023-06-14T05:18:27;16.50;99.90
12746;DHT22;6437;53.686;10.030;2023-06-14T05:20:29;16.50;99.90
12746;DHT22;6437;53.686;10.030;2023-06-14T05:22:31;16.50;99.90
12746;DHT22;6437;53.686;10.030;2023-06-14T05:24:33;16.50;99.90
12746;DHT22;6437;53.686;10.030;2023-06-14T05:26:34;16.60;99.90
12746;DHT22;6437;53.686;10.030;2023-06-14T05:28:37;16.60;99.90
12746;DHT22;6437;53.686;10.030;2023-06-14T05:30:39;16.60;99.90
12746;DHT22;6437;53.686;10.030;2023-06-14T05:32:41;16.70;99.90
12746;DHT22;6437;53.686;10.030;2023-06-14T05:34:43;16.70;99.90
12746;DHT22;6437;53.686;10.030;2023-06-14T05:36:45;16.80;99.90
12746;DHT22;6437;53.686;10.030;2023-06-14T05:38:47;16.80;99.90
12746;DHT22;6437;53.686;10.030;2023-06-14T05:40:49;16.80;99.90
12746;DHT22;6437;53.686;10.030;2023-06-14T05:42:50;16.90;99.90
12746;DHT22;6437;53.686;10.030;2023-06-14T05:44:54;16.90;99.90
12746;DHT22;6437;53.686;10.030;2023-06-14T05:46:56;17.00;99.90
12746;DHT22;6437;53.686;10.030;2023-06-14T05:48:57;17.00;99.90
12746;DHT22;6437;53.686;10.030;2023-06-14T05:50:59;17.10;99.90
12746;DHT22;6437;53.686;10.030;2023-06-14T05:53:01;16.00;99.90
12746;DHT22;6437;53.686;10.030;2023-06-14T05:55:04;17.20;99.90
12746;DHT22;6437;53.686;10.030;2023-06-14T05:57:06;16.70;99.90
12746;DHT22;6437;53.686;10.030;2023-06-14T05:59:08;17.20;99.90
12746;DHT22;6437;53.686;10.030;2023-06-14T06:01:11;17.30;99.90
12746;DHT22;6437;53.686;10.030;2023-06-14T06:03:13;17.40;99.90
12746;DHT22;6437;53.686;10.030;2023-06-14T06:05:15;17.40;99.90
12746;DHT22;6437;53.686;10.030;2023-06-14T06:07:17;17.50;99.90
12746;DHT22;6437;53.686;10.030;2023-06-14T06:09:19;17.50;99.90
12746;DHT22;6437;53.686;10.030;2023-06-14T06:11:20;17.50;99.90
12746;DHT22;6437;53.686;10.030;2023-06-14T06:13:22;18.00;99.90
12746;DHT22;6437;53.686;10.030;2023-06-14T06:15:24;17.60;99.90
12746;DHT22;6437;53.686;10.030;2023-06-14T06:17:27;17.70;99.90
12746;DHT22;6437;53.686;10.030;2023-06-14T06:19:29;17.70;99.90
12746;DHT22;6437;53.686;10.030;2023-06-14T06:21:31;17.80;99.90
12746;DHT22;6437;53.686;10.030;2023-06-14T06:23:32;17.90;99.90
12746;DHT22;6437;53.686;10.030;2023-06-14T06:25:34;17.90;99.90
12746;DHT22;6437;53.686;10.030;2023-06-14T06:27:36;18.00;99.90
12746;DHT22;6437;53.686;10.030;2023-06-14T06:29:38;18.00;99.90
12746;DHT22;6437;53.686;10.030;2023-06-14T06:31:40;18.10;99.90
12746;DHT22;6437;53.686;10.030;2023-06-14T06:33:43;17.60;99.90
12746;DHT22;6437;53.686;10.030;2023-06-14T06:35:45;18.20;99.90
12746;DHT22;6437;53.686;10.030;2023-06-14T06:37:47;18.20;99.90
12746;DHT22;6437;53.686;10.030;2023-06-14T06:39:49;18.30;99.90
12746;DHT22;6437;53.686;10.030;2023-06-14T06:41:50;18.30;99.90
12746;DHT22;6437;53.686;10.030;2023-06-14T06:43:52;18.30;99.90
12746;DHT22;6437;53.686;10.030;2023-06-14T06:45:54;18.80;99.90
12746;DHT22;6437;53.686;10.030;2023-06-14T06:47:55;18.40;99.90
12746;DHT22;6437;53.686;10.030;2023-06-14T06:49:59;18.50;99.90
12746;DHT22;6437;53.686;10.030;2023-06-14T06:52:01;18.50;99.90
12746;DHT22;6437;53.686;10.030;2023-06-14T06:54:03;19.80;99.90
12746;DHT22;6437;53.686;10.030;2023-06-14T06:56:06;18.60;99.90
12746;DHT22;6437;53.686;10.030;2023-06-14T06:58:08;18.70;99.90
12746;DHT22;6437;53.686;10.030;2023-06-14T07:00:11;18.70;99.90
12746;DHT22;6437;53.686;10.030;2023-06-14T07:02:13;18.80;99.90
12746;DHT22;6437;53.686;10.030;2023-06-14T07:04:15;18.80;99.90
12746;DHT22;6437;53.686;10.030;2023-06-14T07:06:18;18.80;99.90
12746;DHT22;6437;53.686;10.030;2023-06-14T07:08:20;18.80;99.90
12746;DHT22;6437;53.686;10.030;2023-06-14T07:10:22;18.90;99.90
12746;DHT22;6437;53.686;10.030;2023-06-14T07:12:24;18.90;99.90
12746;DHT22;6437;53.686;10.030;2023-06-14T07:14:26;19.00;99.90
12746;DHT22;6437;53.686;10.030;2023-06-14T07:16:29;19.10;99.90
12746;DHT22;6437;53.686;10.030;2023-06-14T07:18:31;19.10;99.90
12746;DHT22;6437;53.686;10.030;2023-06-14T07:20:33;19.10;99.90
12746;DHT22;6437;53.686;10.030;2023-06-14T07:22:36;19.20;99.90
12746;DHT22;6437;53.686;10.030;2023-06-14T07:24:37;19.20;99.90
12746;DHT22;6437;53.686;10.030;2023-06-14T07:26:41;17.80;99.90
12746;DHT22;6437;53.686;10.030;2023-06-14T07:28:42;19.30;99.90
12746;DHT22;6437;53.686;10.030;2023-06-14T07:30:45;19.30;99.90
12746;DHT22;6437;53.686;10.030;2023-06-14T07:32:48;19.40;99.90
12746;DHT22;6437;53.686;10.030;2023-06-14T07:34:50;19.40;99.90
12746;DHT22;6437;53.686;10.030;2023-06-14T07:36:52;19.50;99.90
12746;DHT22;6437;53.686;10.030;2023-06-14T07:38:56;19.50;99.90
12746;DHT22;6437;53.686;10.030;2023-06-14T07:40:57;19.50;99.90
12746;DHT22;6437;53.686;10.030;2023-06-14T07:42:59;19.60;99.90
12746;DHT22;6437;53.686;10.030;2023-06-14T07:45:02;19.60;99.90
12746;DHT22;6437;53.686;10.030;2023-06-14T07:47:04;19.70;99.90
12746;DHT22;6437;53.686;10.030;2023-06-14T07:49:06;19.20;99.90
12746;DHT22;6437;53.686;10.030;2023-06-14T07:51:08;19.70;99.90
12746;DHT22;6437;53.686;10.030;2023-06-14T07:53:09;19.80;99.90
12746;DHT22;6437;53.686;10.030;2023-06-14T07:55:13;19.30;99.90
12746;DHT22;6437;53.686;10.030;2023-06-14T07:57:15;19.90;99.90
12746;DHT22;6437;53.686;10.030;2023-06-14T07:59:17;19.90;99.90
12746;DHT22;6437;53.686;10.030;2023-06-14T08:01:19;20.00;99.90
12746;DHT22;6437;53.686;10.030;2023-06-14T08:03:20;20.00;99.90
12746;DHT22;6437;53.686;10.030;2023-06-14T08:05:22;20.10;99.90
12746;DHT22;6437;53.686;10.030;2023-06-14T08:07:24;20.10;99.90
12746;DHT22;6437;53.686;10.030;2023-06-14T08:09:26;20.10;99.90
12746;DHT22;6437;53.686;10.030;2023-06-14T08:11:30;20.10;99.90
12746;DHT22;6437;53.686;10.030;2023-06-14T08:13:32;20.20;99.90
12746;DHT22;6437;53.686;10.030;2023-06-14T08:15:34;20.20;99.90
12746;DHT22;6437;53.686;10.030;2023-06-14T08:17:35;20.30;99.90
12746;DHT22;6437;53.686;10.030;2023-06-14T08:19:37;20.30;99.90
12746;DHT22;6437;53.686;10.030;2023-06-14T08:21:39;20.40;99.90
12746;DHT22;6437;53.686;10.030;2023-06-14T08:23:41;20.40;99.90
12746;DHT22;6437;53.686;10.030;2023-06-14T08:25:43;20.50;99.90
12746;DHT22;6437;53.686;10.030;2023-06-14T08:27:46;20.50;99.90
12746;DHT22;6437;53.686;10.030;2023-06-14T08:29:48;20.50;99.90
12746;DHT22;6437;53.686;10.030;2023-06-14T08:31:49;20.50;99.90
12746;DHT22;6437;53.686;10.030;2023-06-14T08:33:51;20.50;99.90
12746;DHT22;6437;53.686;10.030;2023-06-14T08:35:53;20.60;99.90
12746;DHT22;6437;53.686;10.030;2023-06-14T08:37:55;20.60;99.90
12746;DHT22;6437;53.686;10.030;2023-06-14T08:39:57;20.20;99.90
12746;DHT22;6437;53.686;10.030;2023-06-14T08:42:01;20.70;99.90
12746;DHT22;6437;53.686;10.030;2023-06-14T08:44:05;20.80;99.90
12746;DHT22;6437;53.686;10.030;2023-06-14T08:46:08;20.80;99.90
12746;DHT22;6437;53.686;10.030;2023-06-14T08:48:12;20.90;99.90
12746;DHT22;6437;53.686;10.030;2023-06-14T08:50:20;20.90;99.90
12746;DHT22;6437;53.686;10.030;2023-06-14T08:52:22;21.00;99.90
12746;DHT22;6437;53.686;10.030;2023-06-14T08:54:25;21.00;99.90
12746;DHT22;6437;53.686;10.030;2023-06-14T08:56:28;21.00;99.90
12746;DHT22;6437;53.686;10.030;2023-06-14T08:58:30;21.10;99.90
12746;DHT22;6437;53.686;10.030;2023-06-14T09:00:35;21.10;99.90
12746;DHT22;6437;53.686;10.030;2023-06-14T09:02:39;21.10;99.90
12746;DHT22;6437;53.686;10.030;2023-06-14T09:04:44;21.20;99.90
12746;DHT22;6437;53.686;10.030;2023-06-14T09:06:45;21.20;99.90
12746;DHT22;6437;53.686;10.030;2023-06-14T09:08:54;21.30;99.90
12746;DHT22;6437;53.686;10.030;2023-06-14T09:10:57;21.30;99.70
12746;DHT22;6437;53.686;10.030;2023-06-14T09:13:00;21.30;99.60
12746;DHT22;6437;53.686;10.030;2023-06-14T09:15:02;21.40;99.80
12746;DHT22;6437;53.686;10.030;2023-06-14T09:17:07;21.40;99.40
12746;DHT22;6437;53.686;10.030;2023-06-14T09:19:14;21.50;99.20
12746;DHT22;6437;53.686;10.030;2023-06-14T09:21:17;21.50;99.20
12746;DHT22;6437;53.686;10.030;2023-06-14T09:23:20;21.80;99.30
12746;DHT22;6437;53.686;10.030;2023-06-14T09:25:23;21.60;99.00
12746;DHT22;6437;53.686;10.030;2023-06-14T09:27:25;21.50;98.90
12746;DHT22;6437;53.686;10.030;2023-06-14T09:29:27;21.60;98.40
12746;DHT22;6437;53.686;10.030;2023-06-14T09:31:31;21.70;98.60
12746;DHT22;6437;53.686;10.030;2023-06-14T09:33:35;21.70;99.00
12746;DHT22;6437;53.686;10.030;2023-06-14T09:35:36;21.70;98.50
12746;DHT22;6437;53.686;10.030;2023-06-14T09:37:38;21.80;98.40
12746;DHT22;6437;53.686;10.030;2023-06-14T09:39:48;21.80;98.60
12746;DHT22;6437;53.686;10.030;2023-06-14T09:41:50;21.80;98.20
12746;DHT22;6437;53.686;10.030;2023-06-14T09:43:52;21.90;98.00
12746;DHT22;6437;53.686;10.030;2023-06-14T09:45:58;21.90;98.00
12746;DHT22;6437;53.686;10.030;2023-06-14T09:47:59;21.80;97.70
12746;DHT22;6437;53.686;10.030;2023-06-14T09:50:03;22.00;97.60
12746;DHT22;6437;53.686;10.030;2023-06-14T09:52:07;21.90;97.60
12746;DHT22;6437;53.686;10.030;2023-06-14T09:54:15;21.90;97.20
12746;DHT22;6437;53.686;10.030;2023-06-14T09:56:22;22.00;97.00
12746;DHT22;6437;53.686;10.030;2023-06-14T09:58:26;22.00;96.80
12746;DHT22;6437;53.686;10.030;2023-06-14T10:00:30;22.10;96.90
12746;DHT22;6437;53.686;10.030;2023-06-14T10:02:36;22.10;97.00
12746;DHT22;6437;53.686;10.030;2023-06-14T10:04:39;22.20;97.10
12746;DHT22;6437;53.686;10.030;2023-06-14T10:06:45;22.20;97.00
12746;DHT22;6437;53.686;10.030;2023-06-14T10:08:48;22.20;96.90
12746;DHT22;6437;53.686;10.030;2023-06-14T10:10:50;22.30;97.00
12746;DHT22;6437;53.686;10.030;2023-06-14T10:12:52;22.30;96.80
12746;DHT22;6437;53.686;10.030;2023-06-14T10:14:55;22.40;97.00
12746;DHT22;6437;53.686;10.030;2023-06-14T10:17:03;22.40;95.90
12746;DHT22;6437;53.686;10.030;2023-06-14T10:19:13;22.40;95.60
12746;DHT22;6437;53.686;10.030;2023-06-14T10:21:38;22.50;95.50
12746;DHT22;6437;53.686;10.030;2023-06-14T10:23:46;22.60;95.50
12746;DHT22;6437;53.686;10.030;2023-06-14T10:25:50;22.60;95.10
12746;DHT22;6437;53.686;10.030;2023-06-14T10:27:52;22.60;95.70
12746;DHT22;6437;53.686;10.030;2023-06-14T10:30:02;22.70;95.60
12746;DHT22;6437;53.686;10.030;2023-06-14T10:32:05;22.70;95.30
12746;DHT22;6437;53.686;10.030;2023-06-14T10:34:07;22.70;95.20
12746;DHT22;6437;53.686;10.030;2023-06-14T10:36:28;22.80;95.30
12746;DHT22;6437;53.686;10.030;2023-06-14T10:38:34;22.90;95.60
12746;DHT22;6437;53.686;10.030;2023-06-14T10:40:39;22.90;95.70
12746;DHT22;6437;53.686;10.030;2023-06-14T10:42:51;22.90;95.70
12746;DHT22;6437;53.686;10.030;2023-06-14T10:44:55;23.00;95.70
12746;DHT22;6437;53.686;10.030;2023-06-14T10:46:59;23.00;95.90
12746;DHT22;6437;53.686;10.030;2023-06-14T10:49:01;21.80;95.10
12746;DHT22;6437;53.686;10.030;2023-06-14T10:51:03;23.10;95.10
12746;DHT22;6437;53.686;10.030;2023-06-14T10:55:22;23.10;95.30
12746;DHT22;6437;53.686;10.030;2023-06-14T10:57:26;23.00;95.60
12746;DHT22;6437;53.686;10.030;2023-06-14T10:59:28;24.00;96.60
12746;DHT22;6437;53.686;10.030;2023-06-14T11:01:36;23.10;96.30
12746;DHT22;6437;53.686;10.030;2023-06-14T11:03:50;23.10;95.30
12746;DHT22;6437;53.686;10.030;2023-06-14T11:05:54;23.10;94.90
12746;DHT22;6437;53.686;10.030;2023-06-14T11:08:15;23.10;95.00
12746;DHT22;6437;53.686;10.030;2023-06-14T11:10:28;23.20;95.10
12746;DHT22;6437;53.686;10.030;2023-06-14T11:12:36;23.20;95.50
12746;DHT22;6437;53.686;10.030;2023-06-14T11:14:38;23.20;94.90
12746;DHT22;6437;53.686;10.030;2023-06-14T11:16:40;23.10;94.90
12746;DHT22;6437;53.686;10.030;2023-06-14T11:18:42;23.20;94.90
12746;DHT22;6437;53.686;10.030;2023-06-14T11:20:46;21.70;94.70
12746;DHT22;6437;53.686;10.030;2023-06-14T11:22:48;24.70;95.50
12746;DHT22;6437;53.686;10.030;2023-06-14T11:24:50;23.20;95.10
12746;DHT22;6437;53.686;10.030;2023-06-14T11:26:51;23.20;95.20
12746;DHT22;6437;53.686;10.030;2023-06-14T11:28:56;23.20;94.90
12746;DHT22;6437;53.686;10.030;2023-06-14T11:31:03;23.10;94.70
12746;DHT22;6437;53.686;10.030;2023-06-14T11:33:09;23.10;94.60
12746;DHT22;6437;53.686;10.030;2023-06-14T11:35:12;23.10;94.70
12746;DHT22;6437;53.686;10.030;2023-06-14T11:37:15;22.70;94.80
12746;DHT22;6437;53.686;10.030;2023-06-14T11:39:16;23.20;94.90
12746;DHT22;6437;53.686;10.030;2023-06-14T11:41:18;23.20;94.70
12746;DHT22;6437;53.686;10.030;2023-06-14T11:43:20;23.20;94.70
12746;DHT22;6437;53.686;10.030;2023-06-14T11:45:25;23.20;94.90
12746;DHT22;6437;53.686;10.030;2023-06-14T11:47:31;23.40;94.30
12746;DHT22;6437;53.686;10.030;2023-06-14T11:49:35;23.50;93.90
12746;DHT22;6437;53.686;10.030;2023-06-14T11:51:37;23.50;93.00
12746;DHT22;6437;53.686;10.030;2023-06-14T11:53:42;23.60;93.40
12746;DHT22;6437;53.686;10.030;2023-06-14T11:55:44;23.60;93.00
12746;DHT22;6437;53.686;10.030;2023-06-14T11:57:48;23.60;93.00
12746;DHT22;6437;53.686;10.030;2023-06-14T11:59:49;23.60;93.20
12746;DHT22;6437;53.686;10.030;2023-06-14T12:01:54;23.70;93.40
12746;DHT22;6437;53.686;10.030;2023-06-14T12:03:56;23.70;92.80
12746;DHT22;6437;53.686;10.030;2023-06-14T12:06:08;23.70;92.60
12746;DHT22;6437;53.686;10.030;2023-06-14T12:08:09;24.50;93.50
12746;DHT22;6437;53.686;10.030;2023-06-14T12:10:18;23.70;92.80
12746;DHT22;6437;53.686;10.030;2023-06-14T12:12:21;23.50;93.10
12746;DHT22;6437;53.686;10.030;2023-06-14T12:14:28;23.70;92.80
12746;DHT22;6437;53.686;10.030;2023-06-14T12:16:31;23.80;91.80
12746;DHT22;6437;53.686;10.030;2023-06-14T12:18:35;23.80;92.60
12746;DHT22;6437;53.686;10.030;2023-06-14T12:20:39;23.90;92.80
12746;DHT22;6437;53.686;10.030;2023-06-14T12:22:50;23.80;92.70
12746;DHT22;6437;53.686;10.030;2023-06-14T12:24:52;23.90;93.00
12746;DHT22;6437;53.686;10.030;2023-06-14T12:26:54;23.90;92.70
12746;DHT22;6437;53.686;10.030;2023-06-14T12:28:56;24.10;92.60
12746;DHT22;6437;53.686;10.030;2023-06-14T12:30:58;24.00;92.30
12746;DHT22;6437;53.686;10.030;2023-06-14T12:33:00;24.10;92.50
12746;DHT22;6437;53.686;10.030;2023-06-14T12:35:04;24.10;92.70
12746;DHT22;6437;53.686;10.030;2023-06-14T12:37:06;24.10;92.30
12746;DHT22;6437;53.686;10.030;2023-06-14T12:39:08;24.10;92.30
12746;DHT22;6437;53.686;10.030;2023-06-14T12:41:10;24.10;92.10
12746;DHT22;6437;53.686;10.030;2023-06-14T12:43:12;24.10;91.80
12746;DHT22;6437;53.686;10.030;2023-06-14T12:45:14;24.10;91.80
12746;DHT22;6437;53.686;10.030;2023-06-14T12:47:16;24.00;91.70
12746;DHT22;6437;53.686;10.030;2023-06-14T12:49:18;24.00;91.90
12746;DHT22;6437;53.686;10.030;2023-06-14T12:51:22;24.00;92.00
12746;DHT22;6437;53.686;10.030;2023-06-14T12:53:24;24.00;91.80
12746;DHT22;6437;53.686;10.030;2023-06-14T12:55:25;23.90;91.70
12746;DHT22;6437;53.686;10.030;2023-06-14T12:57:27;23.90;91.70
12746;DHT22;6437;53.686;10.030;2023-06-14T12:59:29;24.00;91.80